MUGM/NBW METAR and TAF weather

Enter ICAO airport designator
Station Type Date Time Source
MUGM METAR 2021/04/13 05:51 UTC NOAA

MUGM 130551Z 32004KT 9SM SCT025 BKN280 25/22 A2991 RMK AO2 SLP127 T02500222 10278 20250 58008 $


Station Type Date Time Source
MUGM Decoded METAR 2021/04/13 05:51 UTC NOAA

GUANTANAMO BAY, CUBA NAVAL, CU, Cuba (MUGM) 19-55N 075-12W 23M
Apr 13, 2021 - 01:51 AM EDT / 2021.04.13 0551 UTC
Wind: from the NW (320 degrees) at 5 MPH (4 KT):0
Visibility: 9 mile(s):0
Sky conditions: mostly cloudy
Temperature: 77.0 F (25.0 C)
Dew Point: 72.0 F (22.2 C)
Relative Humidity: 84%
Pressure (altimeter): 29.91 in. Hg (1012 hPa)
Pressure tendency: 0.02 inches (0.8 hPa) lower than three hours ago
ob: MUGM 130551Z 32004KT 9SM SCT025 BKN280 25/22 A2991 RMK AO2 SLP127 T02500222 10278 20250 58008
cycle: 6

Station Type Date Time Source
MUGM TAF 2021/04/13 07:32 UTC NOAA

TAF MUGM 1307/1407 VRB05KT 9999 VCSH SCT025 BKN280 QNH2991INS
BECMG 1317/1319 15010KT 9999 VCTS BKN035CB BKN060 QNH2988INS
TEMPO 1321/1402 VRB05KT 6000 -SHRA SCT020 BKN035 BKN100
BECMG 1402/1403 02010KT 9999 VCSH FEW015 SCT025 QNH2994INS T24/1312Z T29/1318Z FN00236

Example: see airport list